createdAt,value
2022-10-05T00:02:32.183Z,100.00
2022-10-05T00:07:33.563Z,100.00
2022-10-05T00:12:34.963Z,100.00
2022-10-05T00:17:36.294Z,100.00
2022-10-05T00:22:37.608Z,100.00
2022-10-05T00:27:39.103Z,100.00
2022-10-05T00:32:40.467Z,100.00
2022-10-05T00:37:42.206Z,100.00
2022-10-05T00:43:09.880Z,100.00
2022-10-05T00:48:36.923Z,100.00
2022-10-05T00:53:47.448Z,100.00
2022-10-05T00:59:17.794Z,100.00
2022-10-05T01:04:26.653Z,100.00
2022-10-05T01:09:39.749Z,100.00
2022-10-05T01:15:01.259Z,100.00
2022-10-05T01:20:09.742Z,100.00
2022-10-05T01:25:34.843Z,100.00
2022-10-05T01:31:05.756Z,100.00
2022-10-05T01:36:22.547Z,100.00
2022-10-05T01:41:56.114Z,100.00
2022-10-05T01:47:07.606Z,100.00
2022-10-05T01:52:27.678Z,100.00
2022-10-05T01:58:07.689Z,100.00
2022-10-05T02:08:34.871Z,100.00
2022-10-05T02:13:47.357Z,100.00
2022-10-05T02:19:08.086Z,100.00
2022-10-05T02:24:17.140Z,100.00
2022-10-05T02:29:22.516Z,100.00
2022-10-05T02:34:30.005Z,100.00
2022-10-05T02:39:59.229Z,100.00
2022-10-05T02:45:18.586Z,100.00
2022-10-05T02:50:32.232Z,100.00
2022-10-05T02:55:42.771Z,100.00
2022-10-05T03:01:02.080Z,100.00
2022-10-05T03:06:10.686Z,100.00
2022-10-05T03:11:27.000Z,100.00
2022-10-05T03:16:47.326Z,100.00
2022-10-05T03:22:04.162Z,100.00
2022-10-05T03:27:15.484Z,100.00
2022-10-05T03:32:41.163Z,100.00
2022-10-05T03:38:07.948Z,100.00
2022-10-05T03:43:30.708Z,100.00
2022-10-05T03:49:14.151Z,100.00
2022-10-05T03:54:20.655Z,100.00
2022-10-05T03:59:37.852Z,100.00
2022-10-05T04:05:02.599Z,100.00
2022-10-05T04:10:13.687Z,100.00
2022-10-05T04:15:19.349Z,100.00
2022-10-05T04:20:27.263Z,100.00
2022-10-05T04:25:47.669Z,100.00
2022-10-05T04:30:52.060Z,100.00
2022-10-05T04:35:59.340Z,100.00
2022-10-05T04:41:25.510Z,100.00
2022-10-05T04:46:33.436Z,100.00
2022-10-05T04:51:52.046Z,100.00
2022-10-05T04:56:59.246Z,100.00
2022-10-05T05:02:05.147Z,100.00
2022-10-05T05:07:40.555Z,100.00
2022-10-05T05:12:59.280Z,100.00
2022-10-05T05:18:09.779Z,100.00
2022-10-05T05:23:40.927Z,100.00
2022-10-05T05:29:21.869Z,100.00
2022-10-05T05:34:29.180Z,100.00
2022-10-05T05:39:49.344Z,100.00
2022-10-05T05:44:53.820Z,100.00
2022-10-05T05:50:23.074Z,100.00
2022-10-05T05:55:35.149Z,100.00
2022-10-05T06:00:57.352Z,100.00
2022-10-05T06:06:02.362Z,100.00
2022-10-05T06:17:12.015Z,100.00
2022-10-05T06:22:17.318Z,100.00
2022-10-05T06:27:36.815Z,100.00
2022-10-05T06:32:44.313Z,100.00
2022-10-05T06:38:10.910Z,100.00
2022-10-05T06:43:18.361Z,100.00
2022-10-05T06:48:45.649Z,100.00
2022-10-05T06:54:05.357Z,100.00
2022-10-05T06:59:14.797Z,100.00
2022-10-05T07:04:16.189Z,100.00
2022-10-05T07:09:38.726Z,100.00
2022-10-05T07:15:04.250Z,100.00
2022-10-05T07:20:21.121Z,100.00
2022-10-05T07:26:03.443Z,100.00
2022-10-05T07:31:25.055Z,98.76
2022-10-05T07:36:44.779Z,99.08
2022-10-05T07:42:42.448Z,98.93
2022-10-05T07:47:58.614Z,97.13
2022-10-05T07:53:14.249Z,97.02
2022-10-05T07:58:23.319Z,97.60
2022-10-05T08:03:38.321Z,96.03
2022-10-05T08:08:52.757Z,96.12
2022-10-05T08:14:19.020Z,95.51
2022-10-05T08:19:29.381Z,95.11
2022-10-05T08:24:44.001Z,93.94
2022-10-05T08:30:00.729Z,93.73
2022-10-05T08:35:08.089Z,91.95
2022-10-05T08:40:18.639Z,91.97
2022-10-05T08:45:46.473Z,90.95
2022-10-05T08:51:12.316Z,89.23
2022-10-05T08:56:17.623Z,87.94
2022-10-05T09:01:49.531Z,86.30
2022-10-05T09:07:04.071Z,88.71
2022-10-05T09:12:27.311Z,100.00
2022-10-05T09:17:39.539Z,100.00
2022-10-05T09:23:02.406Z,100.00
2022-10-05T09:28:21.245Z,100.00
2022-10-05T09:33:53.600Z,100.00
2022-10-05T09:39:13.924Z,100.00
2022-10-05T09:44:46.267Z,100.00
2022-10-05T09:50:38.810Z,100.00
2022-10-05T09:56:11.434Z,100.00
2022-10-05T10:01:41.265Z,100.00
2022-10-05T10:06:54.903Z,100.00
2022-10-05T10:12:37.589Z,100.00
2022-10-05T10:18:24.041Z,100.00
2022-10-05T10:23:47.101Z,100.00
2022-10-05T10:29:07.125Z,55.79
2022-10-05T10:34:31.529Z,100.00
2022-10-05T10:39:49.327Z,100.00
2022-10-05T10:45:05.207Z,100.00
2022-10-05T10:57:20.438Z,100.00
2022-10-05T11:02:44.677Z,100.00
2022-10-05T11:08:06.751Z,100.00
2022-10-05T11:13:20.314Z,100.00
2022-10-05T11:18:49.808Z,100.00
2022-10-05T11:24:10.423Z,100.00
2022-10-05T11:29:36.078Z,100.00
2022-10-05T11:35:08.360Z,100.00
2022-10-05T11:40:32.826Z,56.61
2022-10-05T11:45:58.238Z,51.79
2022-10-05T11:51:32.601Z,49.29
2022-10-05T11:57:04.825Z,47.32
2022-10-05T12:02:44.864Z,45.32
2022-10-05T12:07:59.648Z,47.45
2022-10-05T12:13:04.335Z,49.15
2022-10-05T12:18:13.944Z,47.40
2022-10-05T12:23:24.459Z,46.25
2022-10-05T12:28:58.133Z,40.21
2022-10-05T12:34:13.792Z,36.20
2022-10-05T12:39:23.993Z,33.07
2022-10-05T12:44:34.613Z,32.77
2022-10-05T12:49:40.346Z,31.24
2022-10-05T12:55:00.747Z,30.42
2022-10-05T13:00:11.196Z,30.96
2022-10-05T13:05:27.944Z,31.72
2022-10-05T13:10:44.476Z,31.59
2022-10-05T13:16:15.683Z,32.10
2022-10-05T13:21:27.013Z,32.63
2022-10-05T13:26:39.371Z,32.97
2022-10-05T13:31:50.990Z,35.04
2022-10-05T13:37:20.356Z,36.18
2022-10-05T13:42:28.013Z,36.32
2022-10-05T13:47:47.671Z,37.23
2022-10-05T13:53:29.135Z,38.93
2022-10-05T13:58:48.718Z,41.44
2022-10-05T14:04:05.784Z,44.34
2022-10-05T14:09:33.555Z,47.03
2022-10-05T14:15:06.143Z,48.80
2022-10-05T14:20:21.647Z,51.69
2022-10-05T14:25:54.187Z,53.29
2022-10-05T14:31:02.558Z,55.22
2022-10-05T14:36:12.544Z,58.45
2022-10-05T14:41:22.025Z,59.05
2022-10-05T14:46:28.173Z,60.46
2022-10-05T14:51:33.463Z,61.43
2022-10-05T14:57:00.498Z,61.75
2022-10-05T15:02:26.411Z,63.32
2022-10-05T15:07:39.654Z,62.91
2022-10-05T15:12:44.624Z,63.57
2022-10-05T15:18:00.793Z,63.35
2022-10-05T15:23:19.637Z,63.47
2022-10-05T15:28:46.462Z,63.56
2022-10-05T15:33:58.559Z,62.97
2022-10-05T15:39:47.493Z,63.19
2022-10-05T15:45:26.933Z,63.75
2022-10-05T15:50:31.694Z,64.66
2022-10-05T15:55:36.312Z,65.49
2022-10-05T16:00:56.311Z,66.54
2022-10-05T16:06:08.761Z,67.16
2022-10-05T16:11:21.478Z,68.65
2022-10-05T16:16:51.645Z,69.46
2022-10-05T16:22:25.455Z,70.15
2022-10-05T16:27:40.289Z,71.07
2022-10-05T16:33:12.587Z,71.11
2022-10-05T16:39:14.741Z,72.11
2022-10-05T16:44:41.778Z,72.88
2022-10-05T16:56:05.136Z,73.77
2022-10-05T17:01:28.556Z,74.67
2022-10-05T17:06:59.280Z,75.52
2022-10-05T17:12:23.137Z,75.07
2022-10-05T17:18:01.936Z,72.13
2022-10-05T17:23:25.068Z,69.71
2022-10-05T17:28:41.171Z,69.17
2022-10-05T17:34:25.178Z,72.85
2022-10-05T17:45:36.258Z,75.50
2022-10-05T17:50:52.116Z,76.72
2022-10-05T17:56:04.494Z,76.72
2022-10-05T18:01:30.415Z,76.42
2022-10-05T18:06:39.371Z,77.19
2022-10-05T18:12:28.430Z,77.25
2022-10-05T18:17:46.208Z,78.07
2022-10-05T18:22:51.960Z,77.76
2022-10-05T18:28:23.660Z,77.36
2022-10-05T18:39:42.108Z,77.55
2022-10-05T18:45:03.714Z,77.58
2022-10-05T18:50:27.481Z,76.52
2022-10-05T19:51:59.150Z,79.25
2022-10-05T20:02:32.524Z,78.16
2022-10-05T20:07:40.026Z,77.96
2022-10-05T20:13:00.094Z,77.50
2022-10-05T20:18:44.556Z,78.08
2022-10-05T20:23:53.838Z,77.75
2022-10-05T20:28:58.417Z,78.06
2022-10-05T20:34:15.551Z,78.36
2022-10-05T20:39:27.111Z,78.16
2022-10-05T20:44:28.976Z,78.13
2022-10-05T20:49:32.058Z,77.88
2022-10-05T20:54:33.471Z,78.50
2022-10-05T20:59:36.007Z,79.00
2022-10-05T21:04:41.434Z,79.33
2022-10-05T21:09:43.619Z,79.89
2022-10-05T21:14:44.986Z,80.33
2022-10-05T21:19:46.860Z,80.71
2022-10-05T21:24:48.575Z,80.71
2022-10-05T21:29:49.922Z,80.70
2022-10-05T21:34:51.307Z,81.02
2022-10-05T21:39:52.653Z,80.65
2022-10-05T21:44:54.031Z,80.79
2022-10-05T21:49:55.438Z,80.85
2022-10-05T21:54:56.784Z,81.36
2022-10-05T21:59:58.147Z,81.15
2022-10-05T22:04:59.505Z,81.75
2022-10-05T22:10:00.987Z,82.11
2022-10-05T22:15:02.353Z,81.85
2022-10-05T22:20:03.965Z,84.29
2022-10-05T22:25:06.078Z,81.72
2022-10-05T22:30:08.022Z,86.49
2022-10-05T22:35:11.672Z,90.74
2022-10-05T22:40:13.292Z,93.78
2022-10-05T22:45:14.699Z,95.68
2022-10-05T22:50:16.170Z,96.62
2022-10-05T22:55:17.619Z,96.64
2022-10-05T23:00:19.398Z,96.53
2022-10-05T23:05:21.951Z,96.99
2022-10-05T23:10:23.459Z,96.51
2022-10-05T23:15:25.564Z,95.90
2022-10-05T23:20:26.975Z,95.00
2022-10-05T23:25:28.327Z,95.08
2022-10-05T23:30:29.849Z,94.58
2022-10-05T23:35:31.452Z,93.82
2022-10-05T23:40:33.101Z,93.54
2022-10-05T23:45:34.491Z,93.77
2022-10-05T23:50:35.948Z,94.86
2022-10-05T23:55:37.636Z,96.80
